createdAt,value
2017-12-24T00:01:34.223Z,99718.82
2017-12-24T00:04:06.132Z,99715.38
2017-12-24T00:06:36.959Z,99721.52
2017-12-24T00:09:08.655Z,99718.97
2017-12-24T00:11:39.855Z,99712.42
2017-12-24T00:14:12.478Z,99703.77
2017-12-24T00:16:42.119Z,99712.41
2017-12-24T00:19:12.181Z,99703.41
2017-12-24T00:21:41.883Z,99697.31
2017-12-24T00:24:13.594Z,99698.90
2017-12-24T00:26:43.694Z,99699.00
2017-12-24T00:29:14.531Z,99698.20
2017-12-24T00:31:44.492Z,99701.75
2017-12-24T00:34:14.399Z,99703.61
2017-12-24T00:36:43.886Z,99707.12
2017-12-24T00:39:15.828Z,99712.67
2017-12-24T00:41:46.596Z,99706.86
2017-12-24T00:44:16.500Z,99716.42
2017-12-24T00:46:46.417Z,99708.06
2017-12-24T00:49:17.460Z,99709.35
2017-12-24T00:51:47.266Z,99703.25
2017-12-24T00:54:17.624Z,99705.16
2017-12-24T00:56:48.708Z,99704.83
2017-12-24T00:59:20.087Z,99694.73
2017-12-24T01:01:52.116Z,99693.11
2017-12-24T01:04:23.578Z,99699.60
2017-12-24T01:06:53.818Z,99698.38
2017-12-24T01:09:23.672Z,99694.81
2017-12-24T01:11:53.678Z,99689.78
2017-12-24T01:14:29.448Z,99704.05
2017-12-24T01:17:14.794Z,99705.78
2017-12-24T01:22:45.971Z,99714.44
2017-12-24T01:25:17.111Z,99708.41
2017-12-24T01:27:48.760Z,99703.34
2017-12-24T01:30:18.623Z,99705.98
2017-12-24T01:32:50.795Z,99711.55
2017-12-24T01:35:46.380Z,99705.82
2017-12-24T01:38:20.026Z,99712.93
2017-12-24T01:40:53.669Z,99717.69
2017-12-24T01:43:26.430Z,99715.45
2017-12-24T01:45:59.493Z,99710.85
2017-12-24T01:48:33.656Z,99708.89
2017-12-24T01:51:03.776Z,99702.07
2017-12-24T01:53:33.455Z,99698.47
2017-12-24T01:56:07.107Z,99693.85
2017-12-24T01:58:38.732Z,99686.50
2017-12-24T02:01:15.686Z,99678.59
2017-12-24T02:03:49.310Z,99676.70
2017-12-24T02:06:27.913Z,99690.83
2017-12-24T02:09:00.084Z,99696.72
2017-12-24T02:11:32.837Z,99696.39
2017-12-24T02:14:02.913Z,99699.52
2017-12-24T02:16:33.200Z,99698.70
2017-12-24T02:19:04.573Z,99696.83
2017-12-24T02:21:34.492Z,99699.28
2017-12-24T02:24:05.023Z,99698.48
2017-12-24T02:26:35.720Z,99702.09
2017-12-24T02:29:10.799Z,99701.83
2017-12-24T02:31:42.078Z,99710.20
2017-12-24T02:34:12.427Z,99715.38
2017-12-24T02:36:44.138Z,99715.00
2017-12-24T02:39:18.851Z,99716.66
2017-12-24T02:41:50.691Z,99704.48
2017-12-24T02:44:22.274Z,99701.13
2017-12-24T02:46:54.027Z,99700.75
2017-12-24T02:49:25.212Z,99699.81
2017-12-24T02:51:55.702Z,99703.20
2017-12-24T02:54:32.257Z,99709.63
2017-12-24T02:57:08.734Z,99705.33
2017-12-24T02:59:46.368Z,99697.63
2017-12-24T03:02:17.076Z,99691.96
2017-12-24T03:04:47.334Z,99682.31
2017-12-24T03:07:17.215Z,99693.19
2017-12-24T03:09:49.848Z,99685.66
2017-12-24T03:12:20.250Z,99687.51
2017-12-24T03:14:50.075Z,99689.58
2017-12-24T03:17:21.003Z,99686.33
2017-12-24T03:19:50.799Z,99685.66
2017-12-24T03:22:20.683Z,99687.30
2017-12-24T03:24:50.969Z,99681.11
2017-12-24T03:27:20.862Z,99692.13
2017-12-24T03:29:51.429Z,99691.80
2017-12-24T03:32:21.822Z,99684.03
2017-12-24T03:34:51.710Z,99684.02
2017-12-24T03:37:39.072Z,99688.83
2017-12-24T03:40:12.344Z,99686.56
2017-12-24T03:42:42.040Z,99685.93
2017-12-24T03:45:13.021Z,99685.03
2017-12-24T03:47:46.463Z,99679.68
2017-12-24T03:50:24.380Z,99675.33
2017-12-24T03:52:54.381Z,99676.13
2017-12-24T03:55:26.701Z,99667.69
2017-12-24T03:57:58.062Z,99668.85
2017-12-24T04:00:40.274Z,99670.29
2017-12-24T04:03:10.526Z,99678.18
2017-12-24T04:05:40.025Z,99669.08
2017-12-24T04:08:10.894Z,99674.63
2017-12-24T04:11:03.572Z,99669.98
2017-12-24T04:13:34.080Z,99674.20
2017-12-24T04:16:04.593Z,99667.21
2017-12-24T04:18:35.595Z,99661.17
2017-12-24T04:21:08.561Z,99669.05
2017-12-24T04:23:38.504Z,99669.80
2017-12-24T04:26:09.595Z,99656.56
2017-12-24T04:28:39.495Z,99662.81
2017-12-24T04:31:09.161Z,99659.33
2017-12-24T04:33:38.846Z,99666.79
2017-12-24T04:36:09.158Z,99659.91
2017-12-24T04:38:38.882Z,99655.27
2017-12-24T04:41:09.357Z,99647.34
2017-12-24T04:43:39.638Z,99655.46
2017-12-24T04:46:09.458Z,99646.02
2017-12-24T04:48:39.381Z,99640.28
2017-12-24T04:51:10.618Z,99637.54
2017-12-24T04:53:41.566Z,99631.86
2017-12-24T04:56:12.273Z,99625.61
2017-12-24T04:58:41.913Z,99618.35
2017-12-24T05:01:12.834Z,99621.76
2017-12-24T05:03:45.851Z,99622.75
2017-12-24T05:06:15.714Z,99621.02
2017-12-24T05:08:45.597Z,99622.38
2017-12-24T05:11:17.094Z,99614.48
2017-12-24T05:13:46.870Z,99610.47
2017-12-24T05:16:16.474Z,99605.69
2017-12-24T05:18:48.570Z,99599.17
2017-12-24T05:21:20.237Z,99602.59
2017-12-24T05:23:50.024Z,99599.64
2017-12-24T05:26:20.098Z,99595.94
2017-12-24T05:28:50.696Z,99592.80
2017-12-24T05:31:20.948Z,99590.47
2017-12-24T05:33:51.411Z,99579.50
2017-12-24T05:36:21.263Z,99575.16
2017-12-24T05:38:51.812Z,99569.48
2017-12-24T05:41:22.974Z,99564.36
2017-12-24T05:43:54.359Z,99553.85
2017-12-24T05:46:24.786Z,99548.04
2017-12-24T05:48:56.975Z,99543.37
2017-12-24T05:51:38.454Z,99545.00
2017-12-24T05:54:12.335Z,99540.02
2017-12-24T05:56:43.189Z,99542.00
2017-12-24T05:59:17.857Z,99540.55
2017-12-24T06:04:49.404Z,99551.41
2017-12-24T06:07:21.343Z,99550.98
2017-12-24T06:09:51.657Z,99548.34
2017-12-24T06:12:23.170Z,99536.63
2017-12-24T06:14:54.123Z,99535.99
2017-12-24T06:17:24.512Z,99532.49
2017-12-24T06:19:59.658Z,99523.49
2017-12-24T06:22:37.209Z,99512.75
2017-12-24T06:25:11.337Z,99519.11
2017-12-24T06:27:42.343Z,99519.09
2017-12-24T06:30:12.581Z,99514.72
2017-12-24T06:32:47.697Z,99524.47
2017-12-24T06:35:17.486Z,99527.17
2017-12-24T06:37:52.074Z,99521.34
2017-12-24T06:40:22.473Z,99516.91
2017-12-24T06:43:00.249Z,99515.14
2017-12-24T06:45:33.441Z,99518.95
2017-12-24T06:48:04.354Z,99513.13
2017-12-24T06:50:35.913Z,99507.40
2017-12-24T06:53:06.784Z,99495.89
2017-12-24T06:55:39.043Z,99504.96
2017-12-24T06:58:10.059Z,99503.32
2017-12-24T07:00:40.464Z,99503.74
2017-12-24T07:03:10.502Z,99508.54
2017-12-24T07:05:40.515Z,99508.64
2017-12-24T07:08:21.714Z,99517.34
2017-12-24T07:10:52.008Z,99511.50
2017-12-24T07:13:23.285Z,99520.73
2017-12-24T07:15:56.140Z,99524.62
2017-12-24T07:18:29.650Z,99523.06
2017-12-24T07:21:00.802Z,99533.64
2017-12-24T07:23:40.525Z,99530.78
2017-12-24T07:26:19.499Z,99526.94
2017-12-24T07:31:40.679Z,99534.42
2017-12-24T07:36:59.021Z,99540.63
2017-12-24T07:39:38.402Z,99536.69
2017-12-24T07:42:14.654Z,99535.52
2017-12-24T07:47:34.504Z,99538.00
2017-12-24T07:50:08.895Z,99545.42
2017-12-24T07:52:39.932Z,99552.37
2017-12-24T07:55:14.491Z,99553.75
2017-12-24T07:57:48.901Z,99557.70
2017-12-24T08:00:19.005Z,99563.28
2017-12-24T08:02:48.823Z,99555.30
2017-12-24T08:05:22.530Z,99562.47
2017-12-24T08:07:52.306Z,99564.48
2017-12-24T08:10:22.641Z,99563.62
2017-12-24T08:12:58.911Z,99563.19
2017-12-24T08:15:31.280Z,99553.81
2017-12-24T08:18:04.818Z,99553.36
2017-12-24T08:20:39.014Z,99562.53
2017-12-24T08:23:13.914Z,99560.49
2017-12-24T08:25:44.174Z,99564.08
2017-12-24T08:28:14.368Z,99569.55
2017-12-24T08:30:47.240Z,99569.59
2017-12-24T08:33:19.459Z,99584.27
2017-12-24T08:35:53.695Z,99583.33
2017-12-24T08:38:33.672Z,99575.03
2017-12-24T08:41:10.424Z,99585.50
2017-12-24T08:46:28.842Z,99587.67
2017-12-24T08:51:57.506Z,99598.92
2017-12-24T08:54:36.296Z,99604.57
2017-12-24T08:59:54.528Z,99600.11
2017-12-24T09:02:26.594Z,99605.97
2017-12-24T09:04:56.732Z,99594.44
2017-12-24T09:07:32.760Z,99602.92
2017-12-24T09:10:04.806Z,99596.98
2017-12-24T09:12:46.804Z,99581.08
2017-12-24T09:15:33.515Z,99578.53
2017-12-24T09:18:11.323Z,99589.87
2017-12-24T09:20:42.810Z,99583.36
2017-12-24T09:23:22.318Z,99588.66
2017-12-24T09:25:58.612Z,99586.91
2017-12-24T09:28:30.221Z,99588.69
2017-12-24T09:31:02.280Z,99584.26
2017-12-24T09:33:37.171Z,99588.81
2017-12-24T09:36:09.993Z,99593.03
2017-12-24T09:38:44.419Z,99578.53
2017-12-24T09:41:21.138Z,99588.00
2017-12-24T09:43:51.136Z,99584.23
2017-12-24T09:46:30.851Z,99577.20
2017-12-24T09:49:03.120Z,99574.39
2017-12-24T09:51:34.846Z,99583.80
2017-12-24T09:54:05.197Z,99578.04
2017-12-24T09:56:36.309Z,99567.83
2017-12-24T09:59:22.355Z,99565.16
2017-12-24T10:02:02.779Z,99554.26
2017-12-24T10:04:34.529Z,99558.92
2017-12-24T10:07:05.147Z,99561.15
2017-12-24T10:09:42.606Z,99563.42
2017-12-24T10:12:28.754Z,99555.22
2017-12-24T10:14:58.993Z,99549.64
2017-12-24T10:17:29.448Z,99548.53
2017-12-24T10:20:04.030Z,99539.28
2017-12-24T10:22:34.695Z,99529.27
2017-12-24T10:25:10.142Z,99528.47
2017-12-24T10:27:53.289Z,99522.22
2017-12-24T10:30:32.198Z,99524.81
2017-12-24T10:33:10.988Z,99517.55
2017-12-24T10:35:40.981Z,99515.27
2017-12-24T10:38:18.628Z,99500.42
2017-12-24T10:40:55.139Z,99497.61
2017-12-24T10:43:28.597Z,99498.78
2017-12-24T10:46:13.962Z,99493.30
2017-12-24T10:48:49.921Z,99490.53
2017-12-24T10:51:37.541Z,99485.22
2017-12-24T10:54:09.374Z,99481.53
2017-12-24T10:56:40.801Z,99487.45
2017-12-24T10:59:12.576Z,99489.58
2017-12-24T11:01:44.362Z,99484.07
2017-12-24T11:04:15.262Z,99484.66
2017-12-24T11:06:51.410Z,99486.09
2017-12-24T11:09:26.350Z,99474.89
2017-12-24T11:12:06.855Z,99483.47
2017-12-24T11:17:34.080Z,99478.93
2017-12-24T11:20:09.344Z,99470.74
2017-12-24T12:08:32.317Z,99434.05
2017-12-24T12:11:06.959Z,99434.13
2017-12-24T12:13:50.466Z,99425.61
2017-12-24T12:16:21.260Z,99430.27
2017-12-24T12:18:56.054Z,99418.00
2017-12-24T12:21:27.860Z,99426.39
2017-12-24T12:23:58.955Z,99414.02
2017-12-24T12:26:36.749Z,99411.84
2017-12-24T12:29:07.055Z,99410.60
2017-12-24T12:31:39.484Z,99405.23
2017-12-24T12:34:10.463Z,99409.99
2017-12-24T12:36:48.003Z,99400.88
2017-12-24T12:39:26.438Z,99402.98
2017-12-24T12:41:57.120Z,99404.19
2017-12-24T12:44:27.491Z,99392.61
2017-12-24T12:46:59.620Z,99388.70
2017-12-24T12:49:31.710Z,99393.09
2017-12-24T12:52:06.523Z,99395.15
2017-12-24T12:54:38.419Z,99387.32
2017-12-24T12:57:09.602Z,99404.38
2017-12-24T12:59:40.915Z,99391.76
2017-12-24T13:02:15.050Z,99388.75
2017-12-24T13:04:50.511Z,99379.16
2017-12-24T13:07:22.813Z,99380.31
2017-12-24T13:09:53.239Z,99382.17
2017-12-24T13:12:28.536Z,99371.84
2017-12-24T13:14:59.774Z,99371.67
2017-12-24T13:17:35.643Z,99360.05
2017-12-24T13:20:06.137Z,99357.39
2017-12-24T13:22:38.261Z,99365.41
2017-12-24T13:25:17.710Z,99368.17
2017-12-24T13:27:51.098Z,99362.69
2017-12-24T13:30:26.511Z,99360.64
2017-12-24T13:32:57.224Z,99368.88
2017-12-24T13:35:32.496Z,99356.80
2017-12-24T13:38:03.283Z,99360.23
2017-12-24T13:40:34.889Z,99351.23
2017-12-24T13:43:08.028Z,99351.17
2017-12-24T13:45:39.872Z,99341.09
2017-12-24T13:48:15.015Z,99344.55
2017-12-24T13:50:47.303Z,99342.14
2017-12-24T13:53:25.431Z,99333.63
2017-12-24T13:55:56.228Z,99333.11
2017-12-24T13:58:31.929Z,99329.59
2017-12-24T14:01:07.884Z,99333.45
2017-12-24T14:03:41.011Z,99333.40
2017-12-24T14:06:12.451Z,99340.77
2017-12-24T14:08:42.635Z,99334.02
2017-12-24T14:11:13.797Z,99339.07
2017-12-24T14:13:44.141Z,99336.73
2017-12-24T14:16:14.296Z,99334.62
2017-12-24T14:18:47.544Z,99338.34
2017-12-24T14:21:24.759Z,99339.80
2017-12-24T14:23:59.316Z,99350.47
2017-12-24T14:26:31.000Z,99336.36
2017-12-24T14:29:01.442Z,99340.09
2017-12-24T14:31:41.983Z,99344.69
2017-12-24T14:34:12.647Z,99344.50
2017-12-24T14:36:44.434Z,99343.91
2017-12-24T14:39:14.867Z,99340.45
2017-12-24T14:41:44.810Z,99345.12
2017-12-24T14:44:34.531Z,99338.30
2017-12-24T14:52:48.843Z,99342.16
2017-12-24T14:55:36.789Z,99340.13
2017-12-24T14:58:13.942Z,99349.52
2017-12-24T15:00:51.055Z,99351.80
2017-12-24T15:03:32.586Z,99348.08
2017-12-24T15:06:06.511Z,99336.31
2017-12-24T15:08:38.516Z,99343.20
2017-12-24T15:13:59.419Z,99337.64
2017-12-24T15:16:35.879Z,99349.21
2017-12-24T15:19:12.220Z,99344.92
2017-12-24T15:24:45.247Z,99348.90
2017-12-24T15:27:23.489Z,99347.11
2017-12-24T15:29:57.301Z,99347.05
2017-12-24T15:32:30.412Z,99345.95
2017-12-24T15:35:00.806Z,99342.77
2017-12-24T15:37:37.658Z,99350.25
2017-12-24T15:40:22.474Z,99336.56
2017-12-24T15:42:56.540Z,99338.59
2017-12-24T15:45:30.009Z,99341.98
2017-12-24T15:48:08.684Z,99335.17
2017-12-24T15:50:39.930Z,99336.26
2017-12-24T15:53:13.862Z,99335.41
2017-12-24T15:55:47.990Z,99336.00
2017-12-24T15:58:19.679Z,99331.37
2017-12-24T16:00:57.793Z,99330.10
2017-12-24T16:03:31.453Z,99328.11
2017-12-24T16:06:04.817Z,99327.80
2017-12-24T16:08:34.556Z,99337.89
2017-12-24T16:11:04.453Z,99336.20
2017-12-24T16:13:34.966Z,99335.16
2017-12-24T16:16:05.040Z,99335.95
2017-12-24T16:18:35.136Z,99335.53
2017-12-24T16:21:05.798Z,99330.11
2017-12-24T16:23:35.528Z,99328.05
2017-12-24T16:26:05.199Z,99333.13
2017-12-24T16:28:36.162Z,99332.59
2017-12-24T16:31:05.980Z,99332.88
2017-12-24T16:33:35.884Z,99329.75
2017-12-24T16:36:06.774Z,99331.02
2017-12-24T16:38:36.942Z,99331.02
2017-12-24T16:41:07.535Z,99331.66
2017-12-24T16:43:39.865Z,99340.95
2017-12-24T16:46:10.226Z,99342.92
2017-12-24T16:48:41.282Z,99348.67
2017-12-24T16:51:12.433Z,99351.52
2017-12-24T16:53:43.005Z,99344.56
2017-12-24T16:56:12.928Z,99347.28
2017-12-24T16:58:43.633Z,99343.59
2017-12-24T17:01:13.949Z,99347.45
2017-12-24T17:03:43.584Z,99345.77
2017-12-24T17:06:13.312Z,99350.70
2017-12-24T17:08:43.573Z,99334.62
2017-12-24T17:11:13.794Z,99325.57
2017-12-24T17:13:44.248Z,99330.22
2017-12-24T17:16:13.874Z,99325.83
2017-12-24T17:18:43.775Z,99328.16
2017-12-24T17:21:15.031Z,99329.02
2017-12-24T17:23:45.180Z,99316.78
2017-12-24T17:26:15.213Z,99316.12
2017-12-24T17:28:45.230Z,99313.70
2017-12-24T17:31:15.108Z,99316.17
2017-12-24T17:33:46.251Z,99325.70
2017-12-24T17:36:15.943Z,99328.90
2017-12-24T17:38:45.749Z,99330.34
2017-12-24T17:41:16.649Z,99331.66
2017-12-24T17:43:47.290Z,99333.53
2017-12-24T17:46:17.932Z,99336.31
2017-12-24T17:48:48.089Z,99333.72
2017-12-24T17:51:18.358Z,99327.03
2017-12-24T17:53:50.280Z,99317.98
2017-12-24T17:56:20.900Z,99316.66
2017-12-24T17:58:51.622Z,99319.61
2017-12-24T18:01:22.190Z,99319.91
2017-12-24T18:03:51.724Z,99317.73
2017-12-24T18:06:21.813Z,99323.88
2017-12-24T18:08:51.864Z,99325.83
2017-12-24T18:11:22.046Z,99322.44
2017-12-24T18:13:53.012Z,99322.98
2017-12-24T18:16:22.621Z,99323.59
2017-12-24T18:18:54.373Z,99319.62
2017-12-24T18:21:26.047Z,99314.97
2017-12-24T18:23:57.188Z,99314.13
2017-12-24T18:26:28.251Z,99305.63
2017-12-24T18:28:59.478Z,99313.53
2017-12-24T18:31:29.430Z,99313.11
2017-12-24T18:33:59.441Z,99320.16
2017-12-24T18:36:29.527Z,99323.48
2017-12-24T18:38:59.448Z,99315.53
2017-12-24T18:41:29.081Z,99323.17
2017-12-24T18:44:00.426Z,99321.23
2017-12-24T18:46:30.121Z,99319.25
2017-12-24T18:49:00.117Z,99316.13
2017-12-24T18:51:30.357Z,99319.37
2017-12-24T18:54:00.582Z,99315.08
2017-12-24T18:56:30.768Z,99321.88
2017-12-24T18:59:01.397Z,99327.33
2017-12-24T19:01:32.128Z,99317.08
2017-12-24T19:04:01.780Z,99325.04
2017-12-24T19:06:31.949Z,99336.72
2017-12-24T19:09:01.802Z,99334.80
2017-12-24T19:11:33.135Z,99327.23
2017-12-24T19:14:03.467Z,99329.61
2017-12-24T19:16:34.570Z,99334.91
2017-12-24T19:19:04.604Z,99330.87
2017-12-24T19:21:34.399Z,99331.84
2017-12-24T19:24:05.191Z,99332.26
2017-12-24T19:26:36.136Z,99331.36
2017-12-24T19:29:08.457Z,99323.03
2017-12-24T19:31:38.754Z,99318.04
2017-12-24T19:34:17.027Z,99318.58
2017-12-24T19:36:48.233Z,99312.48
2017-12-24T19:39:21.178Z,99310.39
2017-12-24T19:41:52.319Z,99301.17
2017-12-24T19:44:23.430Z,99290.48
2017-12-24T19:46:54.487Z,99291.87
2017-12-24T19:49:25.681Z,99287.30
2017-12-24T19:51:57.093Z,99280.98
2017-12-24T19:54:27.458Z,99285.07
2017-12-24T19:57:00.282Z,99289.95
2017-12-24T19:59:32.532Z,99283.94
2017-12-24T20:02:03.334Z,99285.33
2017-12-24T20:04:35.880Z,99275.14
2017-12-24T20:07:09.763Z,99270.44
2017-12-24T20:09:40.931Z,99269.78
2017-12-24T20:14:52.846Z,99282.36
2017-12-24T20:17:24.650Z,99284.42
2017-12-24T20:19:58.567Z,99282.95
2017-12-24T20:22:30.838Z,99287.19
2017-12-24T20:25:03.973Z,99276.81
2017-12-24T20:27:37.032Z,99287.07
2017-12-24T20:30:14.633Z,99282.25
2017-12-24T20:32:46.578Z,99279.59
2017-12-24T20:35:22.436Z,99271.76
2017-12-24T20:37:54.945Z,99276.09
2017-12-24T20:40:26.893Z,99270.37
2017-12-24T20:43:11.322Z,99268.38
2017-12-24T20:45:43.475Z,99277.37
2017-12-24T20:48:21.657Z,99268.63
2017-12-24T20:50:55.570Z,99266.52
2017-12-24T20:53:31.828Z,99272.59
2017-12-24T20:56:08.008Z,99259.40
2017-12-24T20:58:41.545Z,99265.97
2017-12-24T21:01:16.559Z,99253.52
2017-12-24T21:03:56.000Z,99258.87
2017-12-24T21:06:31.964Z,99261.52
2017-12-24T21:09:05.078Z,99252.41
2017-12-24T21:11:49.990Z,99260.84
2017-12-24T21:17:26.941Z,99269.48
2017-12-24T21:20:08.764Z,99266.40
2017-12-24T21:22:45.872Z,99264.12
2017-12-24T21:25:26.395Z,99270.19
2017-12-24T21:28:00.320Z,99269.70
2017-12-24T21:30:42.286Z,99266.80
2017-12-24T21:33:24.323Z,99267.98
2017-12-24T21:36:03.155Z,99265.08
2017-12-24T21:38:54.377Z,99261.84
2017-12-24T21:41:30.863Z,99263.33
2017-12-24T21:44:12.136Z,99260.17
2017-12-24T21:46:50.516Z,99260.14
2017-12-24T21:49:22.907Z,99254.61
2017-12-24T21:51:56.268Z,99262.80
2017-12-24T21:54:31.856Z,99268.58
2017-12-24T21:57:10.726Z,99266.83
2017-12-24T21:59:41.629Z,99256.84
2017-12-24T22:02:12.717Z,99270.03
2017-12-24T22:04:43.850Z,99267.36
2017-12-24T22:07:16.433Z,99268.58
2017-12-24T22:09:51.004Z,99280.33
2017-12-24T22:12:21.285Z,99278.81
2017-12-24T22:14:52.044Z,99279.68
2017-12-24T22:17:23.348Z,99274.78
2017-12-24T22:19:53.365Z,99275.52
2017-12-24T22:22:23.527Z,99276.66
2017-12-24T22:24:54.268Z,99277.91
2017-12-24T22:27:25.562Z,99280.08
2017-12-24T22:29:57.501Z,99277.42
2017-12-24T22:32:27.524Z,99283.52
2017-12-24T22:34:57.968Z,99285.80
2017-12-24T22:37:29.055Z,99288.28
2017-12-24T22:39:59.317Z,99292.86
2017-12-24T22:42:30.074Z,99292.48
2017-12-24T22:45:04.815Z,99292.66
2017-12-24T22:47:36.685Z,99293.64
2017-12-24T22:50:10.762Z,99298.23
2017-12-24T22:52:43.355Z,99283.58
2017-12-24T22:55:18.877Z,99288.57
2017-12-24T22:57:51.665Z,99290.14
2017-12-24T23:00:22.905Z,99277.43
2017-12-24T23:03:02.224Z,99282.00
2017-12-24T23:05:36.772Z,99280.07
2017-12-24T23:08:11.463Z,99285.80
2017-12-24T23:10:45.069Z,99286.34
2017-12-24T23:13:16.080Z,99283.99
2017-12-24T23:15:48.307Z,99274.94
2017-12-24T23:18:21.493Z,99276.36
2017-12-24T23:20:52.991Z,99276.53
2017-12-24T23:23:25.179Z,99269.48
2017-12-24T23:25:55.826Z,99269.90
2017-12-24T23:28:26.373Z,99257.92
2017-12-24T23:30:57.458Z,99262.68
2017-12-24T23:33:27.826Z,99256.11
2017-12-24T23:36:01.031Z,99261.05
2017-12-24T23:38:38.083Z,99258.17
2017-12-24T23:41:09.407Z,99262.51
2017-12-24T23:43:42.060Z,99261.53
2017-12-24T23:46:13.934Z,99257.92
2017-12-24T23:48:45.329Z,99261.36
2017-12-24T23:51:18.193Z,99257.38
2017-12-24T23:53:54.463Z,99257.19
2017-12-24T23:56:24.452Z,99257.63
2017-12-24T23:58:55.348Z,99253.83
